createdAt,value
2018-05-02T00:02:03.384Z,101323.89
2018-05-02T00:04:33.149Z,101321.69
2018-05-02T00:07:02.126Z,101328.66
2018-05-02T00:09:31.465Z,101324.25
2018-05-02T00:12:02.363Z,101319.39
2018-05-02T00:14:31.813Z,101312.77
2018-05-02T00:17:01.085Z,101312.81
2018-05-02T00:19:31.930Z,101310.10
2018-05-02T00:22:01.520Z,101306.34
2018-05-02T00:24:31.233Z,101308.05
2018-05-02T00:27:02.161Z,101306.27
2018-05-02T00:29:31.190Z,101299.23
2018-05-02T00:32:03.249Z,101302.55
2018-05-02T00:34:33.194Z,101301.94
2018-05-02T00:37:03.942Z,101308.98
2018-05-02T00:39:32.569Z,101296.63
2018-05-02T00:42:01.901Z,101294.73
2018-05-02T00:44:33.291Z,101292.30
2018-05-02T00:47:03.950Z,101290.98
2018-05-02T00:49:33.301Z,101293.84
2018-05-02T00:52:04.179Z,101300.41
2018-05-02T00:54:33.823Z,101297.41
2018-05-02T00:57:04.497Z,101291.97
2018-05-02T00:59:35.380Z,101292.27
2018-05-02T01:02:06.331Z,101295.25
2018-05-02T01:04:37.265Z,101290.75
2018-05-02T01:07:09.398Z,101296.81
2018-05-02T01:09:41.387Z,101293.52
2018-05-02T01:12:12.339Z,101297.77
2018-05-02T01:14:41.967Z,101299.62
2018-05-02T01:17:12.848Z,101296.81
2018-05-02T01:19:43.259Z,101301.31
2018-05-02T01:22:12.169Z,101295.75
2018-05-02T01:24:43.154Z,101290.98
2018-05-02T01:27:14.435Z,101291.58
2018-05-02T01:29:43.849Z,101290.75
2018-05-02T01:32:14.516Z,101284.80
2018-05-02T01:34:43.655Z,101287.64
2018-05-02T01:37:13.188Z,101292.75
2018-05-02T01:39:43.967Z,101294.70
2018-05-02T01:42:13.622Z,101291.47
2018-05-02T01:44:44.529Z,101293.69
2018-05-02T01:47:14.941Z,101295.27
2018-05-02T01:49:44.948Z,101293.41
2018-05-02T01:52:15.948Z,101288.70
2018-05-02T01:54:45.984Z,101296.84
2018-05-02T01:57:16.815Z,101299.00
2018-05-02T01:59:47.422Z,101298.68
2018-05-02T02:02:16.658Z,101292.81
2018-05-02T02:04:46.656Z,101296.72
2018-05-02T02:07:17.493Z,101293.15
2018-05-02T02:09:48.199Z,101290.23
2018-05-02T02:12:18.082Z,101284.47
2018-05-02T02:14:47.931Z,101287.27
2018-05-02T02:17:19.352Z,101284.19
2018-05-02T02:19:49.129Z,101284.25
2018-05-02T02:22:19.859Z,101283.39
2018-05-02T02:24:50.618Z,101284.73
2018-05-02T02:27:20.358Z,101285.33
2018-05-02T02:29:50.456Z,101286.27
2018-05-02T02:32:19.482Z,101285.45
2018-05-02T02:34:50.058Z,101282.14
2018-05-02T02:37:19.112Z,101278.90
2018-05-02T02:39:49.390Z,101276.06
2018-05-02T02:42:22.758Z,101277.70
2018-05-02T02:44:54.647Z,101282.48
2018-05-02T02:47:24.142Z,101278.42
2018-05-02T02:49:54.799Z,101282.76
2018-05-02T02:52:26.745Z,101276.56
2018-05-02T02:54:55.730Z,101276.53
2018-05-02T02:57:25.188Z,101273.70
2018-05-02T02:59:54.621Z,101273.52
2018-05-02T03:02:24.634Z,101265.13
2018-05-02T03:04:54.427Z,101270.48
2018-05-02T03:07:25.307Z,101270.52
2018-05-02T03:09:56.210Z,101267.30
2018-05-02T03:12:26.304Z,101267.52
2018-05-02T03:14:56.777Z,101258.06
2018-05-02T03:17:27.701Z,101255.46
2018-05-02T03:19:56.908Z,101263.08
2018-05-02T03:22:26.464Z,101256.73
2018-05-02T03:24:57.223Z,101260.90
2018-05-02T03:27:26.794Z,101255.88
2018-05-02T03:29:56.214Z,101251.43
2018-05-02T03:32:25.639Z,101249.59
2018-05-02T03:34:57.067Z,101245.93
2018-05-02T03:37:27.837Z,101241.88
2018-05-02T03:39:58.448Z,101243.86
2018-05-02T03:42:27.736Z,101234.20
2018-05-02T03:44:57.049Z,101236.66
2018-05-02T03:47:27.010Z,101233.45
2018-05-02T03:49:57.694Z,101231.76
2018-05-02T03:52:28.874Z,101231.64
2018-05-02T03:54:58.055Z,101225.36
2018-05-02T03:57:27.952Z,101234.17
2018-05-02T04:00:40.599Z,101238.62
2018-05-02T04:03:47.223Z,101249.61
2018-05-02T04:06:45.526Z,101245.17
2018-05-02T04:09:14.846Z,101249.25
2018-05-02T04:11:44.228Z,101237.76
2018-05-02T04:14:15.064Z,101246.06
2018-05-02T04:16:45.870Z,101241.91
2018-05-02T04:19:16.825Z,101236.64
2018-05-02T04:21:48.248Z,101239.67
2018-05-02T04:24:17.370Z,101237.61
2018-05-02T04:26:46.462Z,101239.09
2018-05-02T04:29:17.267Z,101244.41
2018-05-02T04:31:47.926Z,101236.58
2018-05-02T04:34:18.633Z,101236.66
2018-05-02T04:36:47.848Z,101243.27
2018-05-02T04:39:18.561Z,101243.92
2018-05-02T04:41:49.398Z,101248.30
2018-05-02T04:44:18.463Z,101249.34
2018-05-02T04:46:47.826Z,101255.58
2018-05-02T04:49:18.358Z,101258.63
2018-05-02T04:51:49.103Z,101259.23
2018-05-02T04:54:19.708Z,101258.11
2018-05-02T04:56:51.058Z,101258.91
2018-05-02T04:59:20.237Z,101260.11
2018-05-02T05:01:50.978Z,101263.39
2018-05-02T05:04:21.911Z,101264.77
2018-05-02T05:06:53.784Z,101269.66
2018-05-02T05:09:24.511Z,101267.89
2018-05-02T05:11:55.731Z,101265.39
2018-05-02T05:14:25.600Z,101262.08
2018-05-02T05:16:57.087Z,101262.34
2018-05-02T05:19:25.937Z,101264.59
2018-05-02T05:21:55.629Z,101274.11
2018-05-02T05:24:25.022Z,101269.88
2018-05-02T05:26:54.390Z,101269.03
2018-05-02T05:29:23.503Z,101269.82
2018-05-02T05:31:54.855Z,101266.23
2018-05-02T05:34:24.833Z,101265.42
2018-05-02T05:36:56.266Z,101260.48
2018-05-02T05:39:26.962Z,101259.75
2018-05-02T05:41:56.284Z,101271.03
2018-05-02T05:44:27.220Z,101263.48
2018-05-02T05:46:57.704Z,101264.09
2018-05-02T05:49:28.341Z,101268.25
2018-05-02T05:51:57.277Z,101271.66
2018-05-02T05:54:28.066Z,101268.95
2018-05-02T05:56:57.264Z,101274.46
2018-05-02T05:59:28.215Z,101272.47
2018-05-02T06:01:57.576Z,101273.44
2018-05-02T06:04:27.934Z,101267.66
2018-05-02T06:06:59.600Z,101269.70
2018-05-02T06:09:30.434Z,101272.91
2018-05-02T06:12:01.185Z,101279.75
2018-05-02T06:14:32.434Z,101284.06
2018-05-02T06:17:02.095Z,101278.27
2018-05-02T06:19:32.586Z,101266.05
2018-05-02T06:22:02.591Z,101275.17
2018-05-02T06:24:32.978Z,101261.97
2018-05-02T06:27:04.262Z,101268.33
2018-05-02T06:29:33.858Z,101258.86
2018-05-02T06:32:04.548Z,101266.20
2018-05-02T06:34:33.894Z,101268.20
2018-05-02T06:37:03.735Z,101262.43
2018-05-02T06:39:32.782Z,101270.16
2018-05-02T06:42:03.431Z,101271.80
2018-05-02T06:44:34.291Z,101263.01
2018-05-02T06:47:04.727Z,101255.82
2018-05-02T06:49:33.853Z,101263.68
2018-05-02T06:52:04.373Z,101264.46
2018-05-02T06:54:33.642Z,101268.15
2018-05-02T06:57:04.034Z,101264.86
2018-05-02T06:59:34.004Z,101262.60
2018-05-02T07:02:05.455Z,101267.24
2018-05-02T07:04:34.633Z,101262.06
2018-05-02T07:07:04.049Z,101259.38
2018-05-02T07:09:33.695Z,101257.16
2018-05-02T07:12:05.176Z,101254.03
2018-05-02T07:14:36.644Z,101254.86
2018-05-02T07:17:07.535Z,101255.02
2018-05-02T07:19:39.106Z,101257.72
2018-05-02T07:22:08.287Z,101257.05
2018-05-02T07:24:38.227Z,101263.59
2018-05-02T07:27:07.292Z,101256.02
2018-05-02T07:29:37.985Z,101257.19
2018-05-02T07:32:08.699Z,101253.84
2018-05-02T07:34:39.572Z,101256.64
2018-05-02T07:37:09.202Z,101246.75
2018-05-02T07:39:38.402Z,101254.08
2018-05-02T07:42:09.869Z,101251.51
2018-05-02T07:44:40.629Z,101252.35
2018-05-02T07:47:10.551Z,101236.42
2018-05-02T07:49:42.735Z,101245.37
2018-05-02T07:52:12.060Z,101240.63
2018-05-02T07:54:41.458Z,101239.35
2018-05-02T07:57:10.573Z,101238.55
2018-05-02T07:59:40.481Z,101241.34
2018-05-02T08:02:09.657Z,101242.76
2018-05-02T08:04:40.318Z,101252.41
2018-05-02T08:07:11.870Z,101249.03
2018-05-02T08:09:41.204Z,101248.61
2018-05-02T08:12:12.495Z,101247.98
2018-05-02T08:14:42.420Z,101244.78
2018-05-02T08:17:12.027Z,101248.54
2018-05-02T08:19:41.195Z,101246.06
2018-05-02T08:22:10.488Z,101245.27
2018-05-02T08:24:39.193Z,101240.80
2018-05-02T08:27:09.634Z,101233.23
2018-05-02T08:29:39.573Z,101229.40
2018-05-02T08:32:08.883Z,101225.94
2018-05-02T08:34:38.009Z,101228.70
2018-05-02T08:37:08.904Z,101236.98
2018-05-02T08:39:39.241Z,101230.99
2018-05-02T08:42:09.853Z,101229.25
2018-05-02T08:44:39.268Z,101230.23
2018-05-02T08:47:08.948Z,101228.44
2018-05-02T08:49:39.800Z,101222.47
2018-05-02T08:52:09.168Z,101225.11
2018-05-02T08:54:38.820Z,101225.06
2018-05-02T08:57:08.176Z,101217.17
2018-05-02T08:59:38.985Z,101212.97
2018-05-02T09:02:09.662Z,101202.02
2018-05-02T09:04:39.325Z,101203.27
2018-05-02T09:07:10.626Z,101205.86
2018-05-02T09:09:41.591Z,101205.44
2018-05-02T09:12:11.180Z,101203.41
2018-05-02T09:14:43.955Z,101201.42
2018-05-02T09:17:13.572Z,101196.19
2018-05-02T09:19:44.971Z,101198.02
2018-05-02T09:22:15.763Z,101193.97
2018-05-02T09:24:46.774Z,101195.69
2018-05-02T09:27:17.417Z,101196.80
2018-05-02T09:29:47.118Z,101193.76
2018-05-02T09:32:17.862Z,101196.98
2018-05-02T09:34:48.551Z,101181.07
2018-05-02T09:37:19.693Z,101189.17
2018-05-02T09:39:50.979Z,101189.73
2018-05-02T09:42:20.153Z,101181.77
2018-05-02T09:44:51.336Z,101191.16
2018-05-02T09:47:20.715Z,101183.77
2018-05-02T09:49:51.402Z,101184.42
2018-05-02T09:52:23.855Z,101172.11
2018-05-02T09:54:53.261Z,101179.34
2018-05-02T09:57:22.967Z,101173.27
2018-05-02T09:59:55.118Z,101169.97
2018-05-02T10:02:24.058Z,101163.03
2018-05-02T10:04:53.232Z,101165.41
2018-05-02T10:07:23.737Z,101176.39
2018-05-02T10:09:53.385Z,101170.09
2018-05-02T10:12:22.445Z,101161.58
2018-05-02T10:14:51.280Z,101166.38
2018-05-02T10:17:22.465Z,101168.85
2018-05-02T10:19:53.181Z,101166.63
2018-05-02T10:22:23.846Z,101165.08
2018-05-02T10:24:53.232Z,101157.78
2018-05-02T10:27:23.151Z,101158.02
2018-05-02T10:29:53.692Z,101155.34
2018-05-02T10:32:23.019Z,101148.02
2018-05-02T10:34:52.167Z,101150.80
2018-05-02T10:37:21.528Z,101151.19
2018-05-02T10:39:52.967Z,101140.16
2018-05-02T10:42:24.204Z,101145.66
2018-05-02T10:44:53.602Z,101144.11
2018-05-02T10:47:22.450Z,101130.86
2018-05-02T10:49:53.386Z,101144.07
2018-05-02T10:52:22.826Z,101150.47
2018-05-02T10:54:51.957Z,101149.00
2018-05-02T10:57:21.400Z,101144.11
2018-05-02T10:59:50.509Z,101147.70
2018-05-02T11:02:20.822Z,101139.45
2018-05-02T11:04:50.703Z,101140.52
2018-05-02T11:07:21.427Z,101136.41
2018-05-02T11:09:51.078Z,101129.95
2018-05-02T11:12:21.421Z,101134.53
2018-05-02T11:14:51.135Z,101136.93
2018-05-02T11:17:22.172Z,101136.55
2018-05-02T11:19:53.581Z,101121.60
2018-05-02T11:22:23.467Z,101129.70
2018-05-02T11:24:54.960Z,101130.00
2018-05-02T11:27:26.710Z,101130.42
2018-05-02T11:29:57.568Z,101129.77
2018-05-02T11:32:29.589Z,101121.69
2018-05-02T11:34:58.896Z,101116.83
2018-05-02T11:37:29.584Z,101110.43
2018-05-02T11:39:58.848Z,101113.66
2018-05-02T11:42:30.306Z,101113.30
2018-05-02T11:45:00.787Z,101105.75
2018-05-02T11:47:32.654Z,101103.39
2018-05-02T11:50:02.076Z,101104.98
2018-05-02T11:52:32.002Z,101111.42
2018-05-02T11:55:01.657Z,101099.41
2018-05-02T11:57:32.523Z,101098.01
2018-05-02T12:00:02.115Z,101094.00
2018-05-02T12:02:33.724Z,101108.59
2018-05-02T12:05:02.497Z,101101.84
2018-05-02T12:07:31.668Z,101096.60
2018-05-02T12:10:03.152Z,101093.53
2018-05-02T12:12:33.881Z,101097.55
2018-05-02T12:15:04.833Z,101098.65
2018-05-02T12:17:35.612Z,101087.03
2018-05-02T12:20:06.711Z,101084.42
2018-05-02T12:22:36.171Z,101069.24
2018-05-02T12:25:07.155Z,101079.31
2018-05-02T12:27:38.090Z,101078.72
2018-05-02T12:30:09.636Z,101074.06
2018-05-02T12:32:38.743Z,101071.29
2018-05-02T12:35:08.104Z,101075.42
2018-05-02T12:37:37.530Z,101073.47
2018-05-02T12:40:08.060Z,101060.13
2018-05-02T12:42:38.931Z,101078.80
2018-05-02T12:45:08.348Z,101060.27
2018-05-02T12:47:39.333Z,101060.17
2018-05-02T12:50:10.668Z,101043.41
2018-05-02T12:52:41.919Z,101048.92
2018-05-02T12:55:12.639Z,101040.20
2018-05-02T12:57:43.582Z,101040.97
2018-05-02T13:00:12.915Z,101036.52
2018-05-02T13:02:43.838Z,101031.15
2018-05-02T13:05:14.485Z,101036.31
2018-05-02T13:07:45.450Z,101027.80
2018-05-02T13:10:15.563Z,101031.27
2018-05-02T13:12:47.494Z,101027.35
2018-05-02T13:15:18.416Z,101023.42
2018-05-02T13:17:51.013Z,101020.65
2018-05-02T13:20:21.064Z,101010.05
2018-05-02T13:22:51.751Z,101000.80
2018-05-02T13:25:21.883Z,101010.55
2018-05-02T13:27:53.344Z,100997.82
2018-05-02T13:30:23.224Z,100998.27
2018-05-02T13:32:52.891Z,100993.23
2018-05-02T13:35:22.240Z,100987.48
2018-05-02T13:37:51.113Z,100985.50
2018-05-02T13:40:21.798Z,100993.45
2018-05-02T13:42:51.773Z,100991.70
2018-05-02T13:45:23.172Z,100982.77
2018-05-02T13:47:53.886Z,100981.19
2018-05-02T13:50:23.544Z,100970.59
2018-05-02T13:52:54.524Z,100968.17
2018-05-02T13:55:23.848Z,100966.19
2018-05-02T13:57:54.753Z,100960.86
2018-05-02T14:00:24.052Z,100954.43
2018-05-02T14:02:57.555Z,100956.02
2018-05-02T14:05:28.584Z,100950.42
2018-05-02T14:08:00.372Z,100949.69
2018-05-02T14:10:30.216Z,100930.81
2018-05-02T14:13:02.237Z,100938.30
2018-05-02T14:15:33.307Z,100925.79
2018-05-02T14:18:05.658Z,100929.27
2018-05-02T14:20:38.582Z,100927.75
2018-05-02T14:23:07.957Z,100923.94
2018-05-02T14:25:37.477Z,100917.90
2018-05-02T14:28:06.874Z,100915.16
2018-05-02T14:30:39.851Z,100920.41
2018-05-02T14:33:09.723Z,100913.84
2018-05-02T14:35:38.831Z,100919.60
2018-05-02T14:38:09.828Z,100917.12
2018-05-02T14:40:39.685Z,100909.62
2018-05-02T14:43:10.619Z,100909.42
2018-05-02T14:45:40.412Z,100918.44
2018-05-02T14:48:10.367Z,100912.22
2018-05-02T14:50:40.168Z,100915.77
2018-05-02T14:53:11.448Z,100917.89
2018-05-02T14:55:40.830Z,100917.73
2018-05-02T14:58:10.219Z,100910.44
2018-05-02T15:00:42.571Z,100910.34
2018-05-02T15:03:13.916Z,100913.66
2018-05-02T15:05:44.876Z,100907.72
2018-05-02T15:08:14.324Z,100914.09
2018-05-02T15:10:43.167Z,100904.06
2018-05-02T15:13:14.055Z,100908.42
2018-05-02T15:15:45.395Z,100906.30
2018-05-02T15:18:15.723Z,100901.04
2018-05-02T15:20:45.110Z,100907.75
2018-05-02T15:23:16.090Z,100906.86
2018-05-02T15:25:47.667Z,100899.11
2018-05-02T15:28:16.959Z,100907.94
2018-05-02T15:30:47.944Z,100908.13
2018-05-02T15:33:17.355Z,100910.90
2018-05-02T15:35:47.223Z,100912.52
2018-05-02T15:38:16.557Z,100907.83
2018-05-02T15:40:45.343Z,100899.58
2018-05-02T15:43:14.507Z,100889.91
2018-05-02T15:45:45.811Z,100900.10
2018-05-02T15:48:15.145Z,100903.55
2018-05-02T15:50:44.489Z,100903.59
2018-05-02T15:53:13.892Z,100893.64
2018-05-02T15:55:45.421Z,100895.17
2018-05-02T15:58:15.933Z,100893.63
2018-05-02T16:00:45.159Z,100904.00
2018-05-02T16:03:15.008Z,100906.06
2018-05-02T16:05:44.130Z,100901.95
2018-05-02T16:08:13.289Z,100902.05
2018-05-02T16:10:43.588Z,100893.34
2018-05-02T16:13:14.600Z,100894.64
2018-05-02T16:15:43.972Z,100893.44
2018-05-02T16:18:13.739Z,100890.65
2018-05-02T16:20:44.643Z,100894.63
2018-05-02T16:23:13.581Z,100895.64
2018-05-02T16:25:42.929Z,100886.60
2018-05-02T16:28:14.078Z,100892.39
2018-05-02T16:30:43.480Z,100883.45
2018-05-02T16:33:13.393Z,100891.97
2018-05-02T16:35:42.530Z,100886.17
2018-05-02T16:38:12.454Z,100890.41
2018-05-02T16:40:42.828Z,100888.37
2018-05-02T16:43:12.013Z,100883.58
2018-05-02T16:45:41.964Z,100888.84
2018-05-02T16:48:13.174Z,100890.08
2018-05-02T16:50:42.542Z,100893.52
2018-05-02T16:53:13.290Z,100895.80
2018-05-02T16:55:43.975Z,100891.98
2018-05-02T16:58:13.166Z,100896.66
2018-05-02T17:00:42.206Z,100894.06
2018-05-02T17:03:11.025Z,100891.29
2018-05-02T17:05:41.687Z,100894.13
2018-05-02T17:08:10.829Z,100900.64
2018-05-02T17:10:41.212Z,100896.90
2018-05-02T17:13:12.027Z,100902.13
2018-05-02T17:15:42.005Z,100904.73
2018-05-02T17:18:12.568Z,100908.03
2018-05-02T17:20:43.594Z,100911.02
2018-05-02T17:23:13.382Z,100909.20
2018-05-02T17:25:44.359Z,100909.23
2018-05-02T17:28:14.988Z,100910.05
2018-05-02T17:30:44.197Z,100914.11
2018-05-02T17:33:12.798Z,100904.59
2018-05-02T17:35:43.691Z,100917.39
2018-05-02T17:38:14.566Z,100921.53
2018-05-02T17:40:43.946Z,100927.23
2018-05-02T17:43:14.691Z,100931.45
2018-05-02T17:45:44.059Z,100935.16
2018-05-02T17:48:13.233Z,100939.26
2018-05-02T17:50:43.091Z,100935.92
2018-05-02T17:53:14.079Z,100945.09
2018-05-02T17:55:43.858Z,100944.77
2018-05-02T17:58:12.444Z,100953.69
2018-05-02T18:00:43.371Z,100953.73
2018-05-02T18:03:12.717Z,100968.61
2018-05-02T18:05:43.309Z,100964.39
2018-05-02T18:08:12.433Z,100970.42
2018-05-02T18:10:43.319Z,100968.52
2018-05-02T18:13:14.290Z,100972.13
2018-05-02T18:15:43.934Z,100975.47
2018-05-02T18:18:14.637Z,100983.41
2018-05-02T18:20:45.544Z,100992.60
2018-05-02T18:23:16.262Z,100991.84
2018-05-02T18:25:45.091Z,100999.17
2018-05-02T18:28:13.983Z,100998.25
2018-05-02T18:30:45.512Z,101002.59
2018-05-02T18:33:14.596Z,101000.29
2018-05-02T18:35:43.713Z,101007.72
2018-05-02T18:38:14.478Z,101004.17
2018-05-02T18:40:45.168Z,101004.51
2018-05-02T18:43:16.639Z,101005.48
2018-05-02T18:45:46.022Z,101011.98
2018-05-02T18:48:15.321Z,101011.98
2018-05-02T18:50:46.526Z,101016.83
2018-05-02T18:53:16.121Z,101023.63
2018-05-02T18:55:47.511Z,101027.44
2018-05-02T18:58:16.862Z,101025.55
2018-05-02T19:00:47.906Z,101033.44
2018-05-02T19:03:17.254Z,101033.69
2018-05-02T19:05:46.357Z,101035.89
2018-05-02T19:08:16.767Z,101043.53
2018-05-02T19:10:47.716Z,101049.80
2018-05-02T19:13:18.970Z,101045.03
2018-05-02T19:15:48.356Z,101047.16
2018-05-02T19:18:36.041Z,101046.73
2018-05-02T19:21:07.448Z,101064.00
2018-05-02T19:23:36.534Z,101066.55
2018-05-02T19:26:30.835Z,101056.51
2018-05-02T19:29:01.873Z,101070.85
2018-05-02T19:31:49.895Z,101064.08
2018-05-02T19:34:20.541Z,101066.52
2018-05-02T19:36:51.168Z,101065.09
2018-05-02T19:39:22.306Z,101064.13
2018-05-02T19:42:08.933Z,101080.24
2018-05-02T19:44:39.244Z,101081.72
2018-05-02T19:47:10.295Z,101087.23
2018-05-02T19:49:41.172Z,101083.37
2018-05-02T19:52:47.550Z,101082.94
2018-05-02T19:55:16.498Z,101088.33
2018-05-02T19:57:45.800Z,101087.92
2018-05-02T20:00:34.291Z,101086.65
2018-05-02T20:03:04.275Z,101092.31
2018-05-02T20:05:33.676Z,101088.78
2018-05-02T20:08:21.766Z,101088.28
2018-05-02T20:11:08.772Z,101097.69
2018-05-02T20:13:56.076Z,101096.39
2018-05-02T20:16:27.065Z,101095.27
2018-05-02T20:18:56.374Z,101093.84
2018-05-02T20:21:25.935Z,101097.40
2018-05-02T20:23:56.823Z,101099.92
2018-05-02T20:26:27.677Z,101107.09
2018-05-02T20:28:57.413Z,101114.22
2018-05-02T20:31:28.429Z,101105.61
2018-05-02T20:33:59.796Z,101121.73
2018-05-02T20:36:30.776Z,101122.44
2018-05-02T20:39:00.097Z,101132.66
2018-05-02T20:41:29.294Z,101126.73
2018-05-02T20:44:00.685Z,101137.41
2018-05-02T20:46:31.400Z,101136.02
2018-05-02T20:49:02.641Z,101144.75
2018-05-02T20:51:32.658Z,101150.94
2018-05-02T20:54:03.637Z,101149.76
2018-05-02T20:56:33.406Z,101148.52
2018-05-02T20:59:02.723Z,101146.58
2018-05-02T21:01:33.777Z,101137.11
2018-05-02T21:04:03.336Z,101135.02
2018-05-02T21:06:33.218Z,101138.86
2018-05-02T21:09:04.145Z,101134.66
2018-05-02T21:11:34.173Z,101126.63
2018-05-02T21:14:04.028Z,101130.11
2018-05-02T21:16:33.398Z,101124.36
2018-05-02T21:19:02.707Z,101128.83
2018-05-02T21:21:32.100Z,101122.84
2018-05-02T21:24:02.764Z,101120.48
2018-05-02T21:26:33.646Z,101128.83
2018-05-02T21:29:03.234Z,101137.97
2018-05-02T21:31:34.769Z,101140.24
2018-05-02T21:34:05.334Z,101147.20
2018-05-02T21:36:35.279Z,101144.38
2018-05-02T21:39:06.462Z,101137.34
2018-05-02T21:41:37.151Z,101132.50
2018-05-02T21:44:07.873Z,101133.90
2018-05-02T21:46:38.697Z,101129.52
2018-05-02T21:49:07.944Z,101125.95
2018-05-02T21:51:38.635Z,101129.95
2018-05-02T21:54:08.913Z,101136.34
2018-05-02T21:56:38.813Z,101127.45
2018-05-02T21:59:08.374Z,101136.02
2018-05-02T22:01:38.779Z,101144.44
2018-05-02T22:04:09.827Z,101146.02
2018-05-02T22:06:39.131Z,101155.89
2018-05-02T22:09:08.120Z,101152.92
2018-05-02T22:11:37.407Z,101150.78
2018-05-02T22:14:07.193Z,101160.00
2018-05-02T22:16:38.482Z,101165.08
2018-05-02T22:19:07.951Z,101158.81
2018-05-02T22:21:38.190Z,101152.33
2018-05-02T22:24:09.380Z,101156.89
2018-05-02T22:26:40.478Z,101154.10
2018-05-02T22:29:10.185Z,101159.34
2018-05-02T22:31:40.140Z,101166.67
2018-05-02T22:34:09.660Z,101168.08
2018-05-02T22:36:40.424Z,101171.95
2018-05-02T22:39:09.940Z,101170.45
2018-05-02T22:41:41.347Z,101179.13
2018-05-02T22:44:10.637Z,101181.06
2018-05-02T22:46:40.078Z,101183.58
2018-05-02T22:49:09.462Z,101194.31
2018-05-02T22:51:40.610Z,101189.55
2018-05-02T22:54:11.609Z,101184.97
2018-05-02T22:56:41.073Z,101185.70
2018-05-02T22:59:10.357Z,101192.79
2018-05-02T23:01:41.718Z,101196.78
2018-05-02T23:04:11.730Z,101199.25
2018-05-02T23:06:41.127Z,101196.86
2018-05-02T23:09:10.344Z,101203.91
2018-05-02T23:11:39.897Z,101211.00
2018-05-02T23:14:09.378Z,101214.71
2018-05-02T23:16:38.781Z,101220.97
2018-05-02T23:19:08.226Z,101226.38
2018-05-02T23:21:37.159Z,101232.30
2018-05-02T23:24:06.679Z,101239.91
2018-05-02T23:26:37.353Z,101239.83
2018-05-02T23:29:08.210Z,101249.30
2018-05-02T23:31:39.312Z,101252.56
2018-05-02T23:34:09.975Z,101253.02
2018-05-02T23:36:40.891Z,101259.48
2018-05-02T23:39:10.040Z,101259.02
2018-05-02T23:41:39.303Z,101266.04
2018-05-02T23:44:10.788Z,101268.09
2018-05-02T23:46:39.983Z,101263.66
2018-05-02T23:49:10.885Z,101257.47
2018-05-02T23:51:41.892Z,101265.32
2018-05-02T23:54:10.412Z,101273.14
2018-05-02T23:56:39.639Z,101273.77
2018-05-02T23:59:09.464Z,101289.48
